Bridgewater, Massachusetts
Current Conditions -  °F | °C
As of 8:09 AM on Thursday 30 Oct 2014 (Local Time) from KTAN Reporting Station
Haze Haze  
Wind Chill: 41°   Ceiling: Unl
Heat Index: 41°   Visibility: 5mi
Dew Point: 40°   Wind: 0mph
Humidity: 96%   Direction: NA
Pressure: 29.94"   Gusts: NA
Location:  41.99°N, 70.98°W
Report Text: KTAN 301209Z AUTO 00000KT 5SM BR CLR 05/04 A2994 RMK AO2 T00500044
Loading
Personal Weather Stations






























Interactive Weather Map
Tropical Storm Tracking
New forecast layout! Learn more

10-Day Weather Forecast

Advertisements
Track Severe Weather on mobile